createdAt,value
2018-07-23T00:02:25.673Z,18.15
2018-07-23T00:05:23.402Z,18.18
2018-07-23T00:08:21.498Z,18.22
2018-07-23T00:11:19.407Z,18.18
2018-07-23T00:14:17.551Z,18.11
2018-07-23T00:17:15.614Z,17.87
2018-07-23T00:20:12.799Z,17.75
2018-07-23T00:23:10.073Z,17.49
2018-07-23T00:26:07.445Z,17.57
2018-07-23T00:29:05.553Z,17.67
2018-07-23T00:32:02.637Z,17.64
2018-07-23T00:35:00.926Z,17.48
2018-07-23T00:37:58.603Z,17.47
2018-07-23T00:40:56.745Z,17.45
2018-07-23T00:43:54.647Z,17.28
2018-07-23T00:46:52.627Z,17.24
2018-07-23T00:49:50.451Z,17.44
2018-07-23T00:52:48.510Z,17.40
2018-07-23T00:55:45.730Z,17.48
2018-07-23T00:58:43.879Z,17.39
2018-07-23T01:01:41.821Z,17.27
2018-07-23T01:04:39.727Z,17.32
2018-07-23T01:07:37.508Z,17.42
2018-07-23T01:10:35.449Z,17.36
2018-07-23T01:13:33.466Z,17.33
2018-07-23T01:16:31.330Z,17.27
2018-07-23T01:19:29.374Z,17.29
2018-07-23T01:22:27.492Z,17.34
2018-07-23T01:25:25.406Z,17.33
2018-07-23T01:28:23.725Z,17.28
2018-07-23T01:31:21.682Z,17.19
2018-07-23T01:34:18.846Z,17.15
2018-07-23T01:37:16.966Z,16.94
2018-07-23T01:40:15.027Z,17.00
2018-07-23T01:43:13.127Z,16.91
2018-07-23T01:46:10.998Z,16.66
2018-07-23T01:49:08.923Z,16.68
2018-07-23T01:52:05.990Z,16.73
2018-07-23T01:55:03.557Z,16.75
2018-07-23T01:58:01.265Z,16.75
2018-07-23T02:00:58.686Z,16.75
2018-07-23T02:03:56.733Z,16.76
2018-07-23T02:06:54.007Z,16.84
2018-07-23T02:09:51.260Z,16.68
2018-07-23T02:12:48.579Z,16.74
2018-07-23T02:15:46.626Z,16.74
2018-07-23T02:18:43.998Z,16.65
2018-07-23T02:21:43.164Z,16.57
2018-07-23T02:24:41.270Z,16.30
2018-07-23T02:27:39.226Z,16.25
2018-07-23T02:30:37.468Z,16.18
2018-07-23T02:33:35.371Z,16.16
2018-07-23T02:36:33.408Z,16.19
2018-07-23T02:39:31.480Z,16.20
2018-07-23T02:42:29.718Z,16.16
2018-07-23T02:45:26.981Z,16.12
2018-07-23T02:48:24.909Z,16.03
2018-07-23T02:51:22.991Z,16.00
2018-07-23T02:54:21.010Z,15.98
2018-07-23T02:57:19.181Z,16.03
2018-07-23T03:00:17.044Z,16.16
2018-07-23T03:03:14.925Z,16.13
2018-07-23T03:06:13.095Z,16.15
2018-07-23T03:09:10.374Z,16.01
2018-07-23T03:12:08.510Z,15.88
2018-07-23T03:15:06.490Z,15.92
2018-07-23T03:18:04.493Z,15.97
2018-07-23T03:21:02.768Z,16.07
2018-07-23T03:24:00.314Z,16.13
2018-07-23T03:26:58.350Z,16.14
2018-07-23T03:29:56.379Z,16.09
2018-07-23T03:32:53.442Z,15.97
2018-07-23T03:35:51.387Z,15.72
2018-07-23T03:38:49.042Z,15.78
2018-07-23T03:41:47.018Z,15.68
2018-07-23T03:44:44.222Z,15.55
2018-07-23T03:47:42.263Z,15.50
2018-07-23T03:50:40.154Z,15.76
2018-07-23T03:53:38.101Z,15.97
2018-07-23T03:56:35.893Z,15.78
2018-07-23T03:59:34.067Z,15.98
2018-07-23T04:02:32.009Z,15.95
2018-07-23T04:05:30.023Z,16.04
2018-07-23T04:08:27.274Z,16.34
2018-07-23T04:11:25.130Z,16.62
2018-07-23T04:14:23.131Z,16.91
2018-07-23T04:17:21.363Z,17.10
2018-07-23T04:20:19.265Z,17.14
2018-07-23T04:23:17.058Z,17.08
2018-07-23T04:26:15.194Z,17.25
2018-07-23T04:29:13.313Z,17.70
2018-07-23T04:32:11.199Z,17.95
2018-07-23T04:35:09.282Z,18.24
2018-07-23T04:38:07.126Z,18.45
2018-07-23T04:41:05.210Z,18.50
2018-07-23T04:44:03.328Z,19.05
2018-07-23T04:47:01.234Z,19.57
2018-07-23T04:49:59.006Z,20.21
2018-07-23T04:52:57.191Z,20.80
2018-07-23T04:55:54.390Z,21.59
2018-07-23T04:58:52.548Z,21.75
2018-07-23T05:01:50.429Z,22.24
2018-07-23T05:04:47.413Z,22.19
2018-07-23T05:07:45.556Z,23.01
2018-07-23T05:10:43.719Z,24.22
2018-07-23T05:13:41.975Z,24.18
2018-07-23T05:16:40.235Z,24.33
2018-07-23T05:19:37.360Z,24.52
2018-07-23T05:22:35.395Z,25.93
2018-07-23T05:25:32.714Z,26.53
2018-07-23T05:28:30.526Z,25.87
2018-07-23T05:31:28.682Z,25.63
2018-07-23T05:34:26.014Z,26.53
2018-07-23T05:37:24.130Z,27.38
2018-07-23T05:40:22.111Z,28.23
2018-07-23T05:43:19.126Z,27.91
2018-07-23T05:46:17.162Z,28.82
2018-07-23T05:49:15.143Z,28.47
2018-07-23T05:52:13.043Z,28.43
2018-07-23T05:55:11.062Z,28.72
2018-07-23T05:58:10.143Z,27.65
2018-07-23T06:01:08.242Z,27.41
2018-07-23T06:04:06.205Z,27.79
2018-07-23T06:07:04.050Z,28.67
2018-07-23T06:10:01.908Z,28.75
2018-07-23T06:12:59.984Z,28.75
2018-07-23T06:15:58.041Z,29.59
2018-07-23T06:18:55.502Z,29.95
2018-07-23T06:21:53.543Z,28.66
2018-07-23T06:24:51.582Z,28.75
2018-07-23T06:47:25.086Z,29.09
2018-07-23T06:50:22.647Z,29.08
2018-07-23T06:53:20.713Z,27.68
2018-07-23T06:56:18.812Z,27.60
2018-07-23T06:59:16.714Z,27.13
2018-07-23T07:02:13.846Z,27.61
2018-07-23T07:05:11.946Z,29.41
2018-07-23T07:08:09.338Z,29.85
2018-07-23T07:11:07.199Z,30.48
2018-07-23T07:14:04.454Z,30.88
2018-07-23T07:17:02.452Z,31.58
2018-07-23T07:20:00.320Z,32.02
2018-07-23T07:22:58.418Z,33.45
2018-07-23T07:25:56.344Z,32.94
2018-07-23T07:28:54.488Z,34.21
2018-07-23T07:31:52.318Z,33.28
2018-07-23T07:34:50.258Z,33.21
2018-07-23T07:37:48.454Z,33.81
2018-07-23T07:40:47.414Z,33.89
2018-07-23T07:43:44.933Z,33.86
2018-07-23T07:46:43.238Z,34.38
2018-07-23T07:49:40.566Z,34.38
2018-07-23T07:52:38.873Z,32.82
2018-07-23T07:55:36.804Z,32.36
2018-07-23T07:58:34.295Z,33.47
2018-07-23T08:01:31.450Z,33.30
2018-07-23T08:04:29.496Z,34.08
2018-07-23T08:07:27.489Z,33.99
2018-07-23T08:10:25.558Z,34.29
2018-07-23T08:13:23.344Z,34.30
2018-07-23T08:16:20.702Z,34.22
2018-07-23T08:19:18.795Z,34.22
2018-07-23T08:22:16.743Z,34.15
2018-07-23T08:25:14.728Z,35.11
2018-07-23T08:28:12.710Z,35.43
2018-07-23T08:31:10.871Z,34.16
2018-07-23T08:34:08.854Z,34.67
2018-07-23T08:37:06.961Z,35.22
2018-07-23T08:40:05.119Z,35.70
2018-07-23T08:43:03.127Z,36.26
2018-07-23T08:46:00.464Z,34.14
2018-07-23T08:48:58.432Z,34.84
2018-07-23T08:51:56.387Z,34.69
2018-07-23T08:54:54.591Z,36.58
2018-07-23T08:57:52.535Z,36.64
2018-07-23T09:00:50.618Z,35.09
2018-07-23T09:03:48.522Z,36.01
2018-07-23T09:06:46.670Z,35.64
2018-07-23T09:09:44.641Z,34.94
2018-07-23T09:12:42.527Z,35.01
2018-07-23T09:15:40.484Z,33.51
2018-07-23T09:18:38.415Z,34.90
2018-07-23T09:21:36.451Z,35.99
2018-07-23T09:24:34.428Z,35.90
2018-07-23T09:27:32.286Z,35.78
2018-07-23T09:30:36.146Z,36.01
2018-07-23T09:33:34.101Z,36.41
2018-07-23T09:36:31.730Z,36.42
2018-07-23T09:39:30.660Z,36.24
2018-07-23T09:42:28.608Z,34.56
2018-07-23T09:45:26.423Z,33.00
2018-07-23T09:48:24.319Z,34.35
2018-07-23T09:51:22.221Z,35.55
2018-07-23T09:54:20.107Z,36.03
2018-07-23T09:57:17.379Z,35.96
2018-07-23T10:00:15.463Z,35.94
2018-07-23T10:03:12.810Z,35.19
2018-07-23T10:06:10.550Z,35.09
2018-07-23T10:09:08.334Z,34.63
2018-07-23T10:12:06.472Z,35.65
2018-07-23T10:15:03.726Z,36.31
2018-07-23T10:18:01.802Z,34.71
2018-07-23T10:20:59.003Z,34.44
2018-07-23T10:23:56.287Z,35.26
2018-07-23T10:26:54.132Z,35.94
2018-07-23T10:29:52.062Z,35.14
2018-07-23T10:32:50.153Z,36.35
2018-07-23T10:35:48.013Z,35.88
2018-07-23T10:38:45.239Z,35.76
2018-07-23T10:41:42.352Z,34.54
2018-07-23T10:44:40.514Z,36.06
2018-07-23T10:47:38.483Z,35.94
2018-07-23T10:50:36.491Z,36.61
2018-07-23T10:53:34.238Z,35.52
2018-07-23T10:56:32.254Z,36.78
2018-07-23T10:59:29.430Z,37.25
2018-07-23T11:02:27.480Z,37.38
2018-07-23T11:05:25.537Z,36.66
2018-07-23T11:08:22.811Z,36.58
2018-07-23T11:11:20.882Z,35.99
2018-07-23T11:14:18.959Z,36.07
2018-07-23T11:17:16.737Z,35.70
2018-07-23T11:20:14.657Z,34.97
2018-07-23T11:23:12.990Z,35.29
2018-07-23T11:26:10.162Z,34.86
2018-07-23T11:29:07.462Z,34.38
2018-07-23T11:32:05.541Z,34.66
2018-07-23T11:35:03.488Z,34.22
2018-07-23T11:38:01.506Z,32.61
2018-07-23T11:40:59.882Z,31.73
2018-07-23T11:43:57.989Z,31.08
2018-07-23T11:46:55.849Z,30.23
2018-07-23T11:49:53.793Z,30.15
2018-07-23T11:52:51.878Z,30.36
2018-07-23T11:55:49.997Z,29.69
2018-07-23T11:58:47.818Z,30.14
2018-07-23T12:01:45.947Z,29.97
2018-07-23T12:04:44.372Z,30.02
2018-07-23T12:07:41.967Z,29.21
2018-07-23T12:10:40.037Z,29.26
2018-07-23T12:13:38.091Z,29.54
2018-07-23T12:16:35.305Z,29.60
2018-07-23T12:19:33.471Z,29.37
2018-07-23T12:22:31.711Z,29.32
2018-07-23T12:25:29.627Z,29.65
2018-07-23T12:28:27.535Z,29.42
2018-07-23T12:31:25.584Z,29.50
2018-07-23T12:34:23.805Z,29.49
2018-07-23T12:37:21.752Z,29.60
2018-07-23T12:40:19.817Z,29.70
2018-07-23T12:43:17.773Z,29.58
2018-07-23T12:46:15.692Z,29.46
2018-07-23T12:49:13.814Z,29.47
2018-07-23T12:52:11.899Z,29.69
2018-07-23T12:55:08.938Z,29.64
2018-07-23T12:58:07.135Z,29.80
2018-07-23T13:01:05.179Z,29.78
2018-07-23T13:04:03.453Z,29.53
2018-07-23T13:07:01.479Z,29.68
2018-07-23T13:09:59.445Z,30.09
2018-07-23T13:12:57.349Z,30.16
2018-07-23T13:15:55.359Z,30.17
2018-07-23T13:18:53.549Z,30.05
2018-07-23T13:21:51.559Z,29.57
2018-07-23T13:24:49.576Z,29.65
2018-07-23T13:27:46.642Z,29.55
2018-07-23T13:30:43.714Z,29.27
2018-07-23T13:33:41.793Z,29.19
2018-07-23T13:36:39.722Z,29.42
2018-07-23T13:39:37.680Z,29.43
2018-07-23T13:42:35.578Z,29.20
2018-07-23T13:45:42.067Z,29.43
2018-07-23T13:48:39.878Z,29.35
2018-07-23T13:51:37.862Z,29.14
2018-07-23T13:54:35.775Z,29.10
2018-07-23T13:57:33.998Z,29.43
2018-07-23T14:00:31.864Z,29.43
2018-07-23T14:03:29.570Z,29.34
2018-07-23T14:06:27.358Z,29.20
2018-07-23T14:09:25.473Z,29.09
2018-07-23T14:12:23.225Z,29.57
2018-07-23T14:15:21.505Z,29.79
2018-07-23T14:18:19.493Z,29.93
2018-07-23T14:21:17.244Z,29.52
2018-07-23T14:24:14.845Z,29.40
2018-07-23T14:27:12.700Z,29.09
2018-07-23T14:30:10.721Z,29.35
2018-07-23T14:33:08.542Z,29.49
2018-07-23T14:36:06.614Z,29.20
2018-07-23T14:39:04.491Z,29.21
2018-07-23T14:42:02.475Z,29.46
2018-07-23T14:45:00.689Z,29.53
2018-07-23T14:47:58.726Z,29.40
2018-07-23T14:50:56.566Z,29.26
2018-07-23T14:53:54.683Z,28.92
2018-07-23T14:56:52.678Z,28.53
2018-07-23T14:59:50.635Z,28.63
2018-07-23T15:02:48.403Z,28.57
2018-07-23T15:05:46.283Z,28.45
2018-07-23T15:08:44.234Z,28.35
2018-07-23T15:11:42.423Z,28.58
2018-07-23T15:14:40.274Z,28.77
2018-07-23T15:17:38.063Z,28.99
2018-07-23T15:20:36.022Z,28.86
2018-07-23T15:23:34.206Z,28.40
2018-07-23T15:26:32.298Z,28.59
2018-07-23T15:29:30.465Z,28.39
2018-07-23T15:32:28.399Z,28.46
2018-07-23T15:35:26.214Z,28.73
2018-07-23T15:38:24.312Z,28.65
2018-07-23T15:41:22.217Z,28.43
2018-07-23T15:44:20.467Z,28.73
2018-07-23T15:47:18.594Z,28.84
2018-07-23T15:50:16.788Z,28.88
2018-07-23T15:53:14.966Z,29.16
2018-07-23T15:56:12.962Z,29.02
2018-07-23T15:59:11.229Z,28.70
2018-07-23T16:02:09.097Z,28.59
2018-07-23T16:05:06.835Z,28.78
2018-07-23T16:08:04.699Z,28.99
2018-07-23T16:11:02.567Z,28.95
2018-07-23T16:14:00.683Z,29.15
2018-07-23T16:16:58.823Z,29.21
2018-07-23T16:19:56.941Z,29.33
2018-07-23T16:22:54.667Z,29.01
2018-07-23T16:25:52.581Z,29.01
2018-07-23T16:28:50.746Z,28.77
2018-07-23T16:31:48.813Z,28.86
2018-07-23T16:34:46.718Z,28.89
2018-07-23T16:37:44.662Z,29.04
2018-07-23T16:40:42.586Z,29.11
2018-07-23T16:43:40.571Z,28.96
2018-07-23T16:46:38.763Z,29.07
2018-07-23T16:49:36.748Z,28.99
2018-07-23T16:52:34.655Z,28.84
2018-07-23T16:55:32.582Z,28.97
2018-07-23T16:58:30.379Z,29.06
2018-07-23T17:01:28.220Z,29.06
2018-07-23T17:04:26.231Z,28.97
2018-07-23T17:07:24.266Z,29.05
2018-07-23T17:10:22.359Z,29.10
2018-07-23T17:13:20.239Z,28.89
2018-07-23T17:16:18.349Z,28.86
2018-07-23T17:19:16.506Z,28.89
2018-07-23T17:22:14.492Z,28.79
2018-07-23T17:25:12.429Z,28.73
2018-07-23T17:28:10.547Z,28.78
2018-07-23T17:31:08.651Z,28.80
2018-07-23T17:34:06.567Z,28.69
2018-07-23T17:37:04.599Z,28.65
2018-07-23T17:40:02.578Z,28.54
2018-07-23T17:43:00.509Z,28.61
2018-07-23T17:45:58.483Z,28.61
2018-07-23T17:48:56.474Z,28.54
2018-07-23T17:51:54.388Z,28.46
2018-07-23T17:54:52.419Z,28.40
2018-07-23T17:57:50.303Z,28.31
2018-07-23T18:00:48.298Z,28.30
2018-07-23T18:03:46.223Z,28.17
2018-07-23T18:06:44.177Z,28.13
2018-07-23T18:09:42.458Z,28.09
2018-07-23T18:12:40.418Z,28.06
2018-07-23T18:15:38.436Z,28.04
2018-07-23T18:18:36.326Z,27.95
2018-07-23T18:21:34.320Z,27.87
2018-07-23T18:24:32.118Z,27.82
2018-07-23T18:27:29.916Z,27.73
2018-07-23T18:30:28.861Z,27.66
2018-07-23T18:33:26.042Z,27.60
2018-07-23T18:36:25.086Z,27.51
2018-07-23T18:39:24.355Z,27.44
2018-07-23T18:42:22.346Z,27.34
2018-07-23T18:45:20.427Z,27.26
2018-07-23T18:48:23.630Z,27.12
2018-07-23T18:51:21.001Z,26.95
2018-07-23T18:54:18.202Z,26.71
2018-07-23T18:57:16.349Z,26.52
2018-07-23T19:00:14.079Z,26.21
2018-07-23T19:03:12.056Z,25.95
2018-07-23T19:06:10.270Z,25.53
2018-07-23T19:09:08.127Z,25.48
2018-07-23T19:12:06.140Z,25.31
2018-07-23T19:15:04.267Z,25.12
2018-07-23T19:18:02.232Z,25.00
2018-07-23T19:21:00.380Z,24.78
2018-07-23T19:23:58.401Z,24.55
2018-07-23T19:26:56.504Z,24.35
2018-07-23T19:29:53.834Z,24.32
2018-07-23T19:32:51.874Z,24.28
2018-07-23T19:35:50.174Z,24.27
2018-07-23T19:38:48.174Z,24.28
2018-07-23T19:41:46.256Z,24.18
2018-07-23T19:44:44.497Z,24.26
2018-07-23T19:47:42.731Z,24.28
2018-07-23T19:50:40.551Z,24.18
2018-07-23T19:53:38.414Z,24.04
2018-07-23T19:56:35.663Z,23.96
2018-07-23T19:59:33.577Z,23.85
2018-07-23T20:02:31.429Z,23.63
2018-07-23T20:05:29.473Z,23.40
2018-07-23T20:08:26.785Z,23.29
2018-07-23T20:11:24.842Z,23.06
2018-07-23T20:14:22.802Z,23.01
2018-07-23T20:17:20.936Z,22.96
2018-07-23T20:20:20.124Z,22.93
2018-07-23T20:23:18.232Z,22.86
2018-07-23T20:26:16.372Z,22.66
2018-07-23T20:29:14.099Z,22.67
2018-07-23T20:32:12.306Z,22.66
2018-07-23T20:35:10.232Z,22.49
2018-07-23T20:38:08.182Z,22.50
2018-07-23T20:41:06.030Z,22.46
2018-07-23T20:44:03.993Z,22.44
2018-07-23T20:47:02.098Z,22.37
2018-07-23T20:50:00.096Z,22.30
2018-07-23T20:52:58.218Z,22.20
2018-07-23T20:55:56.451Z,21.99
2018-07-23T20:58:54.333Z,21.94
2018-07-23T21:01:52.157Z,21.83
2018-07-23T21:04:50.218Z,21.53
2018-07-23T21:07:48.427Z,21.49
2018-07-23T21:10:46.497Z,21.41
2018-07-23T21:13:44.563Z,21.43
2018-07-23T21:16:42.518Z,21.25
2018-07-23T21:19:39.759Z,21.11
2018-07-23T21:22:37.750Z,20.96
2018-07-23T21:25:35.745Z,20.91
2018-07-23T21:28:32.694Z,20.97
2018-07-23T21:31:30.581Z,20.80
2018-07-23T21:34:28.634Z,20.75
2018-07-23T21:37:26.590Z,20.83
2018-07-23T21:40:24.623Z,20.68
2018-07-23T21:43:22.822Z,20.55
2018-07-23T21:46:20.790Z,20.51
2018-07-23T21:49:18.096Z,20.69
2018-07-23T21:52:16.267Z,20.68
2018-07-23T21:55:14.174Z,20.66
2018-07-23T21:58:12.406Z,20.35
2018-07-23T22:01:10.417Z,20.50
2018-07-23T22:04:08.550Z,20.52
2018-07-23T22:07:06.526Z,20.64
2018-07-23T22:10:04.538Z,20.70
2018-07-23T22:13:02.296Z,20.69
2018-07-23T22:15:59.354Z,20.58
2018-07-23T22:18:57.338Z,20.52
2018-07-23T22:21:55.414Z,20.22
2018-07-23T22:24:53.209Z,20.13
2018-07-23T22:27:50.331Z,19.79
2018-07-23T22:30:48.257Z,19.76
2018-07-23T22:33:45.958Z,19.61
2018-07-23T22:36:44.038Z,19.59
2018-07-23T22:39:42.019Z,19.60
2018-07-23T22:42:40.889Z,19.76
2018-07-23T22:45:38.915Z,19.82
2018-07-23T22:48:36.914Z,19.73
2018-07-23T22:51:34.858Z,19.61
2018-07-23T22:54:32.822Z,19.49
2018-07-23T22:57:30.935Z,19.49
2018-07-23T23:00:28.030Z,19.35
2018-07-23T23:03:25.325Z,19.51
2018-07-23T23:06:23.305Z,19.54
2018-07-23T23:09:22.362Z,19.49
2018-07-23T23:12:19.942Z,19.19
2018-07-23T23:15:18.038Z,19.05
2018-07-23T23:18:15.578Z,19.10
2018-07-23T23:21:12.743Z,19.14
2018-07-23T23:24:10.813Z,19.27
2018-07-23T23:27:08.070Z,19.28
2018-07-23T23:30:06.182Z,19.15
2018-07-23T23:33:03.314Z,19.09
2018-07-23T23:36:01.330Z,18.86
2018-07-23T23:38:59.323Z,18.70
2018-07-23T23:41:57.431Z,18.79
2018-07-23T23:44:54.671Z,18.89
2018-07-23T23:47:51.994Z,18.94
2018-07-23T23:50:49.281Z,18.85
2018-07-23T23:53:47.321Z,18.63
2018-07-23T23:56:44.910Z,18.52
2018-07-23T23:59:42.878Z,18.60
